sensor_id;sensor_type;location;lat;lon;timestamp;pressure;altitude;pressure_sealevel;temperature;humidity
38197;BME280;26543;51.976;4.616;2023-11-22T00:02:02;60190.34;;;-140.72;100.00
38197;BME280;26543;51.976;4.616;2023-11-22T00:04:28;60178.13;;;-140.72;100.00
38197;BME280;26543;51.976;4.616;2023-11-22T00:06:53;60194.41;;;-140.72;100.00
38197;BME280;26543;51.976;4.616;2023-11-22T00:09:18;60200.50;;;-140.72;100.00
38197;BME280;26543;51.976;4.616;2023-11-22T00:11:47;60155.78;;;-140.72;100.00
38197;BME280;26543;51.976;4.616;2023-11-22T00:14:12;60194.41;;;-140.72;100.00
38197;BME280;26543;51.976;4.616;2023-11-22T00:16:37;60182.22;;;-140.72;100.00
38197;BME280;26543;51.976;4.616;2023-11-22T00:19:05;60165.94;;;-140.72;100.00
38197;BME280;26543;51.976;4.616;2023-11-22T00:21:31;60178.13;;;-140.72;100.00
38197;BME280;26543;51.976;4.616;2023-11-22T00:23:56;60194.41;;;-140.72;100.00
38197;BME280;26543;51.976;4.616;2023-11-22T00:26:21;60159.84;;;-140.72;100.00
38197;BME280;26543;51.976;4.616;2023-11-22T00:28:47;60200.50;;;-140.72;100.00
38197;BME280;26543;51.976;4.616;2023-11-22T00:31:12;60206.59;;;-140.72;100.00
38197;BME280;26543;51.976;4.616;2023-11-22T00:33:39;60210.66;;;-140.72;100.00
38197;BME280;26543;51.976;4.616;2023-11-22T00:36:05;60182.22;;;-140.72;100.00
38197;BME280;26543;51.976;4.616;2023-11-22T00:38:33;60172.03;;;-140.72;100.00
38197;BME280;26543;51.976;4.616;2023-11-22T00:41:00;60210.66;;;-140.72;100.00
38197;BME280;26543;51.976;4.616;2023-11-22T00:43:27;60198.47;;;-140.72;100.00
38197;BME280;26543;51.976;4.616;2023-11-22T00:45:52;60214.72;;;-140.72;100.00
38197;BME280;26543;51.976;4.616;2023-11-22T00:48:17;60216.78;;;-140.72;100.00
38197;BME280;26543;51.976;4.616;2023-11-22T00:50:43;60202.53;;;-140.72;100.00
38197;BME280;26543;51.976;4.616;2023-11-22T00:53:08;60190.34;;;-140.72;100.00
38197;BME280;26543;51.976;4.616;2023-11-22T00:55:34;60165.94;;;-140.72;100.00
38197;BME280;26543;51.976;4.616;2023-11-22T00:57:59;60163.91;;;-140.72;100.00
38197;BME280;26543;51.976;4.616;2023-11-22T01:00:29;60206.59;;;-140.72;100.00
38197;BME280;26543;51.976;4.616;2023-11-22T01:02:54;60157.81;;;-140.72;100.00
38197;BME280;26543;51.976;4.616;2023-11-22T01:05:19;60167.97;;;-140.72;100.00
38197;BME280;26543;51.976;4.616;2023-11-22T01:07:45;60149.69;;;-140.72;100.00
38197;BME280;26543;51.976;4.616;2023-11-22T01:10:10;60151.72;;;-140.72;100.00
38197;BME280;26543;51.976;4.616;2023-11-22T01:12:35;60159.84;;;-140.72;100.00
38197;BME280;26543;51.976;4.616;2023-11-22T01:15:01;60129.34;;;-140.72;100.00
38197;BME280;26543;51.976;4.616;2023-11-22T01:17:26;60119.19;;;-140.72;100.00
38197;BME280;26543;51.976;4.616;2023-11-22T01:19:51;60125.28;;;-140.72;100.00
38197;BME280;26543;51.976;4.616;2023-11-22T01:22:17;60123.25;;;-140.72;100.00
38197;BME280;26543;51.976;4.616;2023-11-22T01:24:42;60111.03;;;-140.72;100.00
38197;BME280;26543;51.976;4.616;2023-11-22T01:27:07;60163.91;;;-140.72;100.00
38197;BME280;26543;51.976;4.616;2023-11-22T01:29:32;60137.47;;;-140.72;100.00
38197;BME280;26543;51.976;4.616;2023-11-22T01:31:59;60129.34;;;-140.72;100.00
38197;BME280;26543;51.976;4.616;2023-11-22T01:34:24;60127.31;;;-140.72;100.00
38197;BME280;26543;51.976;4.616;2023-11-22T01:36:50;60119.19;;;-140.72;100.00
38197;BME280;26543;51.976;4.616;2023-11-22T01:39:15;60129.34;;;-140.72;100.00
38197;BME280;26543;51.976;4.616;2023-11-22T01:41:40;60084.63;;;-140.72;100.00
38197;BME280;26543;51.976;4.616;2023-11-22T01:44:07;60084.63;;;-140.72;100.00
38197;BME280;26543;51.976;4.616;2023-11-22T01:46:32;60125.28;;;-140.72;100.00
38197;BME280;26543;51.976;4.616;2023-11-22T01:48:58;60109.00;;;-140.72;100.00
38197;BME280;26543;51.976;4.616;2023-11-22T01:51:24;60113.06;;;-140.72;100.00
38197;BME280;26543;51.976;4.616;2023-11-22T01:53:51;60113.06;;;-140.72;100.00
38197;BME280;26543;51.976;4.616;2023-11-22T01:56:20;60086.66;;;-140.72;100.00
38197;BME280;26543;51.976;4.616;2023-11-22T01:58:46;60111.03;;;-140.72;100.00
38197;BME280;26543;51.976;4.616;2023-11-22T02:01:12;60096.81;;;-140.72;100.00
38197;BME280;26543;51.976;4.616;2023-11-22T02:03:37;60129.34;;;-140.72;100.00
38197;BME280;26543;51.976;4.616;2023-11-22T02:06:03;60153.75;;;-140.72;100.00
38197;BME280;26543;51.976;4.616;2023-11-22T02:08:28;60174.06;;;-140.72;100.00
38197;BME280;26543;51.976;4.616;2023-11-22T02:10:57;60145.59;;;-140.72;100.00
38197;BME280;26543;51.976;4.616;2023-11-22T02:13:22;60165.94;;;-140.72;100.00
38197;BME280;26543;51.976;4.616;2023-11-22T02:15:47;60153.75;;;-140.72;100.00
38197;BME280;26543;51.976;4.616;2023-11-22T02:18:13;60149.69;;;-140.72;100.00
38197;BME280;26543;51.976;4.616;2023-11-22T02:20:38;60137.47;;;-140.72;100.00
38197;BME280;26543;51.976;4.616;2023-11-22T02:23:07;60121.22;;;-140.72;100.00
38197;BME280;26543;51.976;4.616;2023-11-22T02:25:33;60204.56;;;-140.72;100.00
38197;BME280;26543;51.976;4.616;2023-11-22T02:27:58;60153.75;;;-140.72;100.00
38197;BME280;26543;51.976;4.616;2023-11-22T02:30:24;60109.00;;;-140.72;100.00
38197;BME280;26543;51.976;4.616;2023-11-22T02:32:50;60123.25;;;-140.72;100.00
38197;BME280;26543;51.976;4.616;2023-11-22T02:35:15;60143.56;;;-140.72;100.00
38197;BME280;26543;51.976;4.616;2023-11-22T02:37:42;60151.72;;;-140.72;100.00
38197;BME280;26543;51.976;4.616;2023-11-22T02:42:38;60186.28;;;-140.72;100.00
38197;BME280;26543;51.976;4.616;2023-11-22T02:45:03;60135.44;;;-140.72;100.00
38197;BME280;26543;51.976;4.616;2023-11-22T02:47:30;60188.31;;;-140.72;100.00
38197;BME280;26543;51.976;4.616;2023-11-22T02:49:55;60178.13;;;-140.72;100.00
38197;BME280;26543;51.976;4.616;2023-11-22T02:52:20;60174.06;;;-140.72;100.00
38197;BME280;26543;51.976;4.616;2023-11-22T02:54:46;60174.06;;;-140.72;100.00
38197;BME280;26543;51.976;4.616;2023-11-22T02:57:12;60196.44;;;-140.72;100.00
38197;BME280;26543;51.976;4.616;2023-11-22T02:59:41;60212.69;;;-140.72;100.00
38197;BME280;26543;51.976;4.616;2023-11-22T03:02:06;60231.00;;;-140.72;100.00
38197;BME280;26543;51.976;4.616;2023-11-22T03:04:32;60200.50;;;-140.72;100.00
38197;BME280;26543;51.976;4.616;2023-11-22T03:06:57;60210.66;;;-140.72;100.00
38197;BME280;26543;51.976;4.616;2023-11-22T03:09:22;60198.47;;;-140.72;100.00
38197;BME280;26543;51.976;4.616;2023-11-22T03:11:48;60245.22;;;-140.72;100.00
38197;BME280;26543;51.976;4.616;2023-11-22T03:14:13;60226.94;;;-140.72;100.00
38197;BME280;26543;51.976;4.616;2023-11-22T03:16:39;60190.34;;;-140.72;100.00
38197;BME280;26543;51.976;4.616;2023-11-22T03:19:04;60186.28;;;-140.72;100.00
38197;BME280;26543;51.976;4.616;2023-11-22T03:21:29;60198.47;;;-140.72;100.00
38197;BME280;26543;51.976;4.616;2023-11-22T03:23:54;60163.91;;;-140.72;100.00
38197;BME280;26543;51.976;4.616;2023-11-22T03:26:20;60206.59;;;-140.72;100.00
38197;BME280;26543;51.976;4.616;2023-11-22T03:28:45;60224.91;;;-140.72;100.00
38197;BME280;26543;51.976;4.616;2023-11-22T03:31:10;60184.25;;;-140.72;100.00
38197;BME280;26543;51.976;4.616;2023-11-22T03:33:35;60216.78;;;-140.72;100.00
38197;BME280;26543;51.976;4.616;2023-11-22T03:36:01;60196.44;;;-140.72;100.00
38197;BME280;26543;51.976;4.616;2023-11-22T03:38:27;60233.03;;;-140.72;100.00
38197;BME280;26543;51.976;4.616;2023-11-22T03:40:52;60220.84;;;-140.72;100.00
38197;BME280;26543;51.976;4.616;2023-11-22T03:43:18;60222.88;;;-140.72;100.00
38197;BME280;26543;51.976;4.616;2023-11-22T03:45:43;60222.88;;;-140.72;100.00
38197;BME280;26543;51.976;4.616;2023-11-22T03:48:09;60222.88;;;-140.72;100.00
38197;BME280;26543;51.976;4.616;2023-11-22T03:50:34;60222.88;;;-140.72;100.00
38197;BME280;26543;51.976;4.616;2023-11-22T03:52:59;60237.09;;;-140.72;100.00
38197;BME280;26543;51.976;4.616;2023-11-22T03:55:24;60253.38;;;-140.72;100.00
38197;BME280;26543;51.976;4.616;2023-11-22T03:57:49;60231.00;;;-140.72;100.00
38197;BME280;26543;51.976;4.616;2023-11-22T04:00:15;60190.34;;;-140.72;100.00
38197;BME280;26543;51.976;4.616;2023-11-22T04:02:41;60255.41;;;-140.72;100.00
38197;BME280;26543;51.976;4.616;2023-11-22T04:05:07;60243.19;;;-140.72;100.00
38197;BME280;26543;51.976;4.616;2023-11-22T04:07:32;60237.09;;;-140.72;100.00
38197;BME280;26543;51.976;4.616;2023-11-22T04:09:57;60253.38;;;-140.72;100.00
38197;BME280;26543;51.976;4.616;2023-11-22T04:12:22;60188.31;;;-140.72;100.00
38197;BME280;26543;51.976;4.616;2023-11-22T04:14:48;60222.88;;;-140.72;100.00
38197;BME280;26543;51.976;4.616;2023-11-22T04:17:13;60261.50;;;-140.72;100.00
38197;BME280;26543;51.976;4.616;2023-11-22T04:19:39;60255.41;;;-140.72;100.00
38197;BME280;26543;51.976;4.616;2023-11-22T04:22:04;60259.47;;;-140.72;100.00
38197;BME280;26543;51.976;4.616;2023-11-22T04:24:29;60226.94;;;-140.72;100.00
38197;BME280;26543;51.976;4.616;2023-11-22T04:26:54;60228.97;;;-140.72;100.00
38197;BME280;26543;51.976;4.616;2023-11-22T04:29:19;60214.72;;;-140.72;100.00
38197;BME280;26543;51.976;4.616;2023-11-22T04:31:45;60231.00;;;-140.72;100.00
38197;BME280;26543;51.976;4.616;2023-11-22T04:34:10;60216.78;;;-140.72;100.00
38197;BME280;26543;51.976;4.616;2023-11-22T04:36:35;60263.53;;;-140.72;100.00
38197;BME280;26543;51.976;4.616;2023-11-22T04:39:01;60186.28;;;-140.72;100.00
38197;BME280;26543;51.976;4.616;2023-11-22T04:41:26;60247.25;;;-140.72;100.00
38197;BME280;26543;51.976;4.616;2023-11-22T04:43:51;60214.72;;;-140.72;100.00
38197;BME280;26543;51.976;4.616;2023-11-22T04:46:17;60206.59;;;-140.72;100.00
38197;BME280;26543;51.976;4.616;2023-11-22T04:48:42;60206.59;;;-140.72;100.00
38197;BME280;26543;51.976;4.616;2023-11-22T04:51:10;60247.25;;;-140.72;100.00
38197;BME280;26543;51.976;4.616;2023-11-22T04:53:35;60253.38;;;-140.72;100.00
38197;BME280;26543;51.976;4.616;2023-11-22T04:56:00;60261.50;;;-140.72;100.00
38197;BME280;26543;51.976;4.616;2023-11-22T04:58:30;60263.53;;;-140.72;100.00
38197;BME280;26543;51.976;4.616;2023-11-22T05:00:56;60231.00;;;-140.72;100.00
38197;BME280;26543;51.976;4.616;2023-11-22T05:03:21;60255.41;;;-140.72;100.00
38197;BME280;26543;51.976;4.616;2023-11-22T05:05:47;60231.00;;;-140.72;100.00
38197;BME280;26543;51.976;4.616;2023-11-22T05:08:12;60263.53;;;-140.72;100.00
38197;BME280;26543;51.976;4.616;2023-11-22T05:10:38;60237.09;;;-140.72;100.00
38197;BME280;26543;51.976;4.616;2023-11-22T05:13:04;60285.91;;;-140.72;100.00
38197;BME280;26543;51.976;4.616;2023-11-22T05:15:30;60261.50;;;-140.72;100.00
38197;BME280;26543;51.976;4.616;2023-11-22T05:17:55;60279.78;;;-140.72;100.00
38197;BME280;26543;51.976;4.616;2023-11-22T05:20:21;60265.56;;;-140.72;100.00
38197;BME280;26543;51.976;4.616;2023-11-22T05:22:47;60255.41;;;-140.72;100.00
38197;BME280;26543;51.976;4.616;2023-11-22T05:25:12;60292.00;;;-140.72;100.00
38197;BME280;26543;51.976;4.616;2023-11-22T05:27:37;60233.03;;;-140.72;100.00
38197;BME280;26543;51.976;4.616;2023-11-22T05:30:03;60271.66;;;-140.72;100.00
38197;BME280;26543;51.976;4.616;2023-11-22T05:32:29;60294.03;;;-140.72;100.00
38197;BME280;26543;51.976;4.616;2023-11-22T05:34:56;60292.00;;;-140.72;100.00
38197;BME280;26543;51.976;4.616;2023-11-22T05:37:21;60298.09;;;-140.72;100.00
38197;BME280;26543;51.976;4.616;2023-11-22T05:39:46;60285.91;;;-140.72;100.00
38197;BME280;26543;51.976;4.616;2023-11-22T05:42:11;60312.31;;;-140.72;100.00
38197;BME280;26543;51.976;4.616;2023-11-22T05:44:37;60304.19;;;-140.72;100.00
38197;BME280;26543;51.976;4.616;2023-11-22T05:47:02;60281.81;;;-140.72;100.00
38197;BME280;26543;51.976;4.616;2023-11-22T05:49:27;60300.13;;;-140.72;100.00
38197;BME280;26543;51.976;4.616;2023-11-22T05:51:53;60318.44;;;-140.72;100.00
38197;BME280;26543;51.976;4.616;2023-11-22T05:54:18;60318.44;;;-140.72;100.00
38197;BME280;26543;51.976;4.616;2023-11-22T05:56:43;60324.53;;;-140.72;100.00
38197;BME280;26543;51.976;4.616;2023-11-22T05:59:09;60292.00;;;-140.72;100.00
38197;BME280;26543;51.976;4.616;2023-11-22T06:01:34;60381.44;;;-140.72;100.00
38197;BME280;26543;51.976;4.616;2023-11-22T06:03:59;60348.94;;;-140.72;100.00
38197;BME280;26543;51.976;4.616;2023-11-22T06:06:24;60332.66;;;-140.72;100.00
38197;BME280;26543;51.976;4.616;2023-11-22T06:08:50;60344.84;;;-140.72;100.00
38197;BME280;26543;51.976;4.616;2023-11-22T06:11:15;60338.75;;;-140.72;100.00
38197;BME280;26543;51.976;4.616;2023-11-22T06:13:41;60342.81;;;-140.72;100.00
38197;BME280;26543;51.976;4.616;2023-11-22T06:16:07;60322.50;;;-140.72;100.00
38197;BME280;26543;51.976;4.616;2023-11-22T06:18:32;60332.66;;;-140.72;100.00
38197;BME280;26543;51.976;4.616;2023-11-22T06:20:59;60308.25;;;-140.72;100.00
38197;BME280;26543;51.976;4.616;2023-11-22T06:23:24;60385.53;;;-140.72;100.00
38197;BME280;26543;51.976;4.616;2023-11-22T06:25:49;60322.50;;;-140.72;100.00
38197;BME280;26543;51.976;4.616;2023-11-22T06:28:14;60371.28;;;-140.72;100.00
38197;BME280;26543;51.976;4.616;2023-11-22T06:30:40;60357.06;;;-140.72;100.00
38197;BME280;26543;51.976;4.616;2023-11-22T06:33:05;60340.78;;;-140.72;100.00
38197;BME280;26543;51.976;4.616;2023-11-22T06:35:30;60363.16;;;-140.72;100.00
38197;BME280;26543;51.976;4.616;2023-11-22T06:37:56;60340.78;;;-140.72;100.00
38197;BME280;26543;51.976;4.616;2023-11-22T06:40:21;60312.31;;;-140.72;100.00
38197;BME280;26543;51.976;4.616;2023-11-22T06:42:46;60377.38;;;-140.72;100.00
38197;BME280;26543;51.976;4.616;2023-11-22T06:45:11;60373.31;;;-140.72;100.00
38197;BME280;26543;51.976;4.616;2023-11-22T06:47:40;60338.75;;;-140.72;100.00
38197;BME280;26543;51.976;4.616;2023-11-22T06:50:05;60357.06;;;-140.72;100.00
38197;BME280;26543;51.976;4.616;2023-11-22T06:52:34;60355.03;;;-140.72;100.00
38197;BME280;26543;51.976;4.616;2023-11-22T06:54:59;60326.56;;;-140.72;100.00
38197;BME280;26543;51.976;4.616;2023-11-22T06:57:24;60350.97;;;-140.72;100.00
38197;BME280;26543;51.976;4.616;2023-11-22T06:59:54;60369.25;;;-140.72;100.00
38197;BME280;26543;51.976;4.616;2023-11-22T07:02:19;60334.69;;;-140.72;100.00
38197;BME280;26543;51.976;4.616;2023-11-22T07:04:44;60381.44;;;-140.72;100.00
38197;BME280;26543;51.976;4.616;2023-11-22T07:07:09;60371.28;;;-140.72;100.00
38197;BME280;26543;51.976;4.616;2023-11-22T07:09:36;60350.97;;;-140.72;100.00
38197;BME280;26543;51.976;4.616;2023-11-22T07:12:01;60395.69;;;-140.72;100.00
38197;BME280;26543;51.976;4.616;2023-11-22T07:14:27;60363.16;;;-140.72;100.00
38197;BME280;26543;51.976;4.616;2023-11-22T07:16:54;60348.94;;;-140.72;100.00
38197;BME280;26543;51.976;4.616;2023-11-22T07:19:20;60340.78;;;-140.72;100.00
38197;BME280;26543;51.976;4.616;2023-11-22T07:21:45;60330.63;;;-140.72;100.00
38197;BME280;26543;51.976;4.616;2023-11-22T07:24:13;60271.66;;;-140.72;100.00
38197;BME280;26543;51.976;4.616;2023-11-22T07:26:40;60281.81;;;-140.72;100.00
38197;BME280;26543;51.976;4.616;2023-11-22T07:29:07;60279.78;;;-140.72;100.00
38197;BME280;26543;51.976;4.616;2023-11-22T07:31:32;60253.38;;;-140.72;100.00
38197;BME280;26543;51.976;4.616;2023-11-22T07:33:57;60273.69;;;-140.72;100.00
38197;BME280;26543;51.976;4.616;2023-11-22T07:36:22;60271.66;;;-140.72;100.00
38197;BME280;26543;51.976;4.616;2023-11-22T07:38:48;60231.00;;;-140.72;100.00
38197;BME280;26543;51.976;4.616;2023-11-22T07:41:13;60231.00;;;-140.72;100.00
38197;BME280;26543;51.976;4.616;2023-11-22T07:43:38;60216.78;;;-140.72;100.00
38197;BME280;26543;51.976;4.616;2023-11-22T07:46:07;60271.66;;;-140.72;100.00
38197;BME280;26543;51.976;4.616;2023-11-22T07:48:43;60249.28;;;-140.72;100.00
38197;BME280;26543;51.976;4.616;2023-11-22T07:51:09;60218.81;;;-140.72;100.00
38197;BME280;26543;51.976;4.616;2023-11-22T07:53:35;60202.53;;;-140.72;100.00
38197;BME280;26543;51.976;4.616;2023-11-22T07:56:00;60235.06;;;-140.72;100.00
38197;BME280;26543;51.976;4.616;2023-11-22T07:58:29;60212.69;;;-140.72;100.00
38197;BME280;26543;51.976;4.616;2023-11-22T08:03:40;60222.88;;;-140.72;100.00
38197;BME280;26543;51.976;4.616;2023-11-22T08:06:15;60235.06;;;-140.72;100.00
38197;BME280;26543;51.976;4.616;2023-11-22T08:08:41;60170.00;;;-140.72;100.00
38197;BME280;26543;51.976;4.616;2023-11-22T08:11:06;60200.50;;;-140.72;100.00
38197;BME280;26543;51.976;4.616;2023-11-22T08:13:39;60186.28;;;-140.72;100.00
38197;BME280;26543;51.976;4.616;2023-11-22T08:16:05;60198.47;;;-140.72;100.00
38197;BME280;26543;51.976;4.616;2023-11-22T08:18:30;60190.34;;;-140.72;100.00
38197;BME280;26543;51.976;4.616;2023-11-22T08:20:55;60170.00;;;-140.72;100.00
38197;BME280;26543;51.976;4.616;2023-11-22T08:23:20;60186.28;;;-140.72;100.00
38197;BME280;26543;51.976;4.616;2023-11-22T08:25:45;60210.66;;;-140.72;100.00
38197;BME280;26543;51.976;4.616;2023-11-22T08:28:11;60222.88;;;-140.72;100.00
38197;BME280;26543;51.976;4.616;2023-11-22T08:30:36;60182.22;;;-140.72;100.00
38197;BME280;26543;51.976;4.616;2023-11-22T08:33:02;60176.09;;;-140.72;100.00
38197;BME280;26543;51.976;4.616;2023-11-22T08:35:27;60198.47;;;-140.72;100.00
38197;BME280;26543;51.976;4.616;2023-11-22T08:37:52;60182.22;;;-140.72;100.00
38197;BME280;26543;51.976;4.616;2023-11-22T08:40:18;60167.97;;;-140.72;100.00
38197;BME280;26543;51.976;4.616;2023-11-22T08:42:45;60188.31;;;-140.72;100.00
38197;BME280;26543;51.976;4.616;2023-11-22T08:45:11;60109.00;;;-140.72;100.00
38197;BME280;26543;51.976;4.616;2023-11-22T08:47:37;60151.72;;;-140.72;100.00
38197;BME280;26543;51.976;4.616;2023-11-22T08:50:02;60100.88;;;-140.72;100.00
38197;BME280;26543;51.976;4.616;2023-11-22T08:52:28;60135.44;;;-140.72;100.00
38197;BME280;26543;51.976;4.616;2023-11-22T08:54:55;60062.25;;;-140.72;100.00
38197;BME280;26543;51.976;4.616;2023-11-22T08:57:21;60066.31;;;-140.72;100.00
38197;BME280;26543;51.976;4.616;2023-11-22T08:59:46;60039.88;;;-140.72;100.00
38197;BME280;26543;51.976;4.616;2023-11-22T09:02:12;60027.69;;;-140.72;100.00
38197;BME280;26543;51.976;4.616;2023-11-22T09:04:38;60007.38;;;-140.72;100.00
38197;BME280;26543;51.976;4.616;2023-11-22T09:07:03;59946.38;;;-140.72;100.00
38197;BME280;26543;51.976;4.616;2023-11-22T09:09:30;59934.19;;;-140.72;100.00
38197;BME280;26543;51.976;4.616;2023-11-22T09:11:56;59926.03;;;-140.72;100.00
38197;BME280;26543;51.976;4.616;2023-11-22T09:14:21;59877.25;;;-140.72;100.00
38197;BME280;26543;51.976;4.616;2023-11-22T09:16:48;59826.44;;;-140.72;100.00
38197;BME280;26543;51.976;4.616;2023-11-22T09:19:19;59802.03;;;-140.72;100.00
38197;BME280;26543;51.976;4.616;2023-11-22T09:21:44;59749.19;;;-140.72;100.00
38197;BME280;26543;51.976;4.616;2023-11-22T09:24:09;59716.66;;;-140.72;100.00
38197;BME280;26543;51.976;4.616;2023-11-22T09:26:35;59673.97;;;-140.72;100.00
38197;BME280;26543;51.976;4.616;2023-11-22T09:29:01;59637.38;;;-140.72;100.00
38197;BME280;26543;51.976;4.616;2023-11-22T09:31:26;59588.59;;;-140.72;100.00
38197;BME280;26543;51.976;4.616;2023-11-22T09:33:51;59560.13;;;-140.72;100.00
38197;BME280;26543;51.976;4.616;2023-11-22T09:36:17;59476.78;;;-140.72;100.00
38197;BME280;26543;51.976;4.616;2023-11-22T09:38:43;59482.88;;;-140.72;100.00
38197;BME280;26543;51.976;4.616;2023-11-22T09:41:08;59440.19;;;-140.72;100.00
38197;BME280;26543;51.976;4.616;2023-11-22T09:43:34;59375.16;;;-140.72;100.00
38197;BME280;26543;51.976;4.616;2023-11-22T09:45:59;59348.72;;;-140.72;100.00
38197;BME280;26543;51.976;4.616;2023-11-22T09:48:25;59277.56;;;-140.72;100.00
38197;BME280;26543;51.976;4.616;2023-11-22T09:55:52;59096.66;;;-140.72;100.00
38197;BME280;26543;51.976;4.616;2023-11-22T09:58:17;59062.13;;;-140.72;100.00
38197;BME280;26543;51.976;4.616;2023-11-22T10:00:44;59019.44;;;-140.72;100.00
38197;BME280;26543;51.976;4.616;2023-11-22T10:03:10;58932.03;;;-140.72;100.00
38197;BME280;26543;51.976;4.616;2023-11-22T10:05:39;58840.59;;;-140.72;100.00
38197;BME280;26543;51.976;4.616;2023-11-22T10:08:04;58820.25;;;-140.72;100.00
38197;BME280;26543;51.976;4.616;2023-11-22T10:10:30;58749.13;;;-140.72;100.00
38197;BME280;26543;51.976;4.616;2023-11-22T10:12:57;58769.44;;;-140.72;100.00
38197;BME280;26543;51.976;4.616;2023-11-22T10:15:23;58669.84;;;-140.72;100.00
38197;BME280;26543;51.976;4.616;2023-11-22T10:17:54;58617.03;;;-140.72;100.00
38197;BME280;26543;51.976;4.616;2023-11-22T10:22:51;58517.44;;;-140.72;100.00
38197;BME280;26543;51.976;4.616;2023-11-22T10:25:16;58478.81;;;-140.72;100.00
38197;BME280;26543;51.976;4.616;2023-11-22T10:27:47;58401.59;;;-140.72;100.00
38197;BME280;26543;51.976;4.616;2023-11-22T10:30:13;58322.34;;;-140.72;100.00
38197;BME280;26543;51.976;4.616;2023-11-22T10:32:39;58291.88;;;-140.72;100.00
38197;BME280;26543;51.976;4.616;2023-11-22T10:35:06;58153.69;;;-140.72;100.00
38197;BME280;26543;51.976;4.616;2023-11-22T10:37:32;58088.66;;;-140.72;100.00
38197;BME280;26543;51.976;4.616;2023-11-22T10:39:57;58031.75;;;-140.72;100.00
38197;BME280;26543;51.976;4.616;2023-11-22T10:42:23;57922.03;;;-140.72;100.00
38197;BME280;26543;51.976;4.616;2023-11-22T10:44:49;57913.91;;;-140.72;100.00
38197;BME280;26543;51.976;4.616;2023-11-22T10:47:15;57859.03;;;-140.72;100.00
38197;BME280;26543;51.976;4.616;2023-11-22T10:49:44;57785.91;;;-140.72;100.00
38197;BME280;26543;51.976;4.616;2023-11-22T10:52:09;57789.97;;;-140.72;100.00
38197;BME280;26543;51.976;4.616;2023-11-22T10:54:37;57722.91;;;-140.72;100.00
38197;BME280;26543;51.976;4.616;2023-11-22T10:57:07;57609.13;;;-140.72;100.00
38197;BME280;26543;51.976;4.616;2023-11-22T10:59:32;57527.84;;;-140.72;100.00
38197;BME280;26543;51.976;4.616;2023-11-22T11:01:58;57462.84;;;-140.72;100.00
38197;BME280;26543;51.976;4.616;2023-11-22T11:04:39;57308.44;;;-140.72;100.00
38197;BME280;26543;51.976;4.616;2023-11-22T11:07:08;57229.19;;;-140.72;100.00
38197;BME280;26543;51.976;4.616;2023-11-22T11:09:37;57121.53;;;-140.72;100.00
38197;BME280;26543;51.976;4.616;2023-11-22T11:12:04;57121.53;;;-140.72;100.00
38197;BME280;26543;51.976;4.616;2023-11-22T11:14:30;57052.44;;;-140.72;100.00
38197;BME280;26543;51.976;4.616;2023-11-22T11:16:56;57056.50;;;-140.72;100.00
38197;BME280;26543;51.976;4.616;2023-11-22T11:19:23;57017.91;;;-140.72;100.00
38197;BME280;26543;51.976;4.616;2023-11-22T11:21:50;56920.41;;;-140.72;100.00
38197;BME280;26543;51.976;4.616;2023-11-22T11:24:15;56934.63;;;-140.72;100.00
38197;BME280;26543;51.976;4.616;2023-11-22T11:26:41;56906.19;;;-140.72;100.00
38197;BME280;26543;51.976;4.616;2023-11-22T11:29:24;56922.44;;;-140.72;100.00
38197;BME280;26543;51.976;4.616;2023-11-22T11:31:54;56934.63;;;-140.72;100.00
38197;BME280;26543;51.976;4.616;2023-11-22T11:34:19;56910.25;;;-140.72;100.00
38197;BME280;26543;51.976;4.616;2023-11-22T11:36:48;56869.63;;;-140.72;100.00
38197;BME280;26543;51.976;4.616;2023-11-22T11:39:18;56885.88;;;-140.72;100.00
38197;BME280;26543;51.976;4.616;2023-11-22T11:41:49;56891.97;;;-140.72;100.00
38197;BME280;26543;51.976;4.616;2023-11-22T11:44:14;56810.72;;;-140.72;100.00
38197;BME280;26543;51.976;4.616;2023-11-22T11:46:41;56796.50;;;-140.72;100.00
38197;BME280;26543;51.976;4.616;2023-11-22T11:49:07;56739.63;;;-140.72;100.00
38197;BME280;26543;51.976;4.616;2023-11-22T11:51:33;56711.19;;;-140.72;100.00
38197;BME280;26543;51.976;4.616;2023-11-22T11:53:58;56719.31;;;-140.72;100.00
38197;BME280;26543;51.976;4.616;2023-11-22T11:56:23;56605.53;;;-140.72;100.00
38197;BME280;26543;51.976;4.616;2023-11-22T11:58:51;56605.53;;;-140.72;100.00
38197;BME280;26543;51.976;4.616;2023-11-22T12:01:17;56532.41;;;-140.72;100.00
38197;BME280;26543;51.976;4.616;2023-11-22T12:03:45;56536.47;;;-140.72;100.00
38197;BME280;26543;51.976;4.616;2023-11-22T12:06:11;56481.63;;;-140.72;100.00
38197;BME280;26543;51.976;4.616;2023-11-22T12:08:39;56402.44;;;-140.72;100.00
38197;BME280;26543;51.976;4.616;2023-11-22T12:11:04;56414.63;;;-140.72;100.00
38197;BME280;26543;51.976;4.616;2023-11-22T12:13:31;56392.28;;;-140.72;100.00
38197;BME280;26543;51.976;4.616;2023-11-22T12:15:57;56430.88;;;-140.72;100.00
38197;BME280;26543;51.976;4.616;2023-11-22T12:18:23;56374.00;;;-140.72;100.00
38197;BME280;26543;51.976;4.616;2023-11-22T12:20:58;56363.84;;;-140.72;100.00
38197;BME280;26543;51.976;4.616;2023-11-22T12:23:24;56380.09;;;-140.72;100.00
38197;BME280;26543;51.976;4.616;2023-11-22T12:25:54;56451.16;;;-140.72;100.00
38197;BME280;26543;51.976;4.616;2023-11-22T12:28:21;56459.31;;;-140.72;100.00
38197;BME280;26543;51.976;4.616;2023-11-22T12:30:47;56483.69;;;-140.72;100.00
38197;BME280;26543;51.976;4.616;2023-11-22T12:33:13;56483.69;;;-140.72;100.00
38197;BME280;26543;51.976;4.616;2023-11-22T12:35:42;56503.97;;;-140.72;100.00
38197;BME280;26543;51.976;4.616;2023-11-22T12:38:09;56394.31;;;-140.72;100.00